Time;durP1;ratioP1;P1;durP2;ratioP2;P2;SDS_P1;SDS_P2;PMS_P1;PMS_P2;Temp;Humidity;BMP_temperature;BMP_pressure;BME280_temperature;BME280_humidity;BME280_pressure;Samples;Min_cycle;Max_cycle;Signal;HPM_P1;HPM_P2
2020/12/07 00:00:24;;;;;;;28.58;20.70;;;6.40;99.90;;;;;;5075937;28;20643;-74
2020/12/07 00:02:50;;;;;;;28.48;22.58;;;6.40;99.90;;;;;;5076740;28;20709;-76
2020/12/07 00:05:17;;;;;;;26.13;21.05;;;6.40;99.90;;;;;;5077268;28;20369;-74
2020/12/07 00:07:43;;;;;;;36.92;21.48;;;6.40;99.90;;;;;;5079290;28;20196;-74
2020/12/07 00:10:09;;;;;;;30.45;23.48;;;6.40;99.90;;;;;;5076160;28;20200;-76
2020/12/07 00:12:36;;;;;;;32.55;21.10;;;6.40;99.90;;;;;;5079380;28;20314;-74
2020/12/07 00:15:05;;;;;;;28.85;21.77;;;6.40;99.90;;;;;;5071981;28;20192;-74
2020/12/07 00:17:31;;;;;;;29.13;22.17;;;6.30;99.90;;;;;;5086008;28;20191;-74
2020/12/07 00:19:57;;;;;;;27.25;21.80;;;6.40;99.90;;;;;;5073140;28;20200;-77
2020/12/07 00:22:25;;;;;;;27.48;21.10;;;6.40;99.90;;;;;;5078114;28;20207;-75
2020/12/07 00:24:52;;;;;;;27.52;20.42;;;6.30;99.90;;;;;;5072122;28;20231;-75
2020/12/07 00:27:22;;;;;;;26.05;20.58;;;6.30;99.90;;;;;;5073299;28;20215;-75
2020/12/07 00:29:50;;;;;;;26.67;20.55;;;6.30;99.90;;;;;;5079746;28;20216;-74
2020/12/07 00:32:16;;;;;;;27.75;21.95;;;6.30;99.90;;;;;;5077034;28;20237;-74
2020/12/07 00:34:43;;;;;;;24.83;21.00;;;6.30;99.90;;;;;;5072979;28;20207;-75
2020/12/07 00:37:09;;;;;;;28.38;21.50;;;6.30;99.90;;;;;;5076388;28;20202;-74
2020/12/07 00:39:36;;;;;;;23.27;19.65;;;6.20;99.90;;;;;;5073867;28;20195;-75
2020/12/07 00:42:02;;;;;;;27.63;20.88;;;6.20;99.90;;;;;;5078247;28;20565;-78
2020/12/07 00:44:29;;;;;;;28.50;23.00;;;6.20;99.90;;;;;;5080262;28;20702;-73
2020/12/07 00:46:56;;;;;;;32.67;24.27;;;6.20;99.90;;;;;;5081446;28;20203;-74
2020/12/07 00:49:23;;;;;;;28.00;22.23;;;6.10;99.90;;;;;;5075249;28;20599;-76
2020/12/07 00:51:49;;;;;;;27.48;22.63;;;6.10;99.90;;;;;;5080467;28;20224;-74
2020/12/07 00:54:17;;;;;;;29.67;22.05;;;6.10;99.90;;;;;;5079491;28;20935;-75
2020/12/07 00:56:44;;;;;;;29.27;24.33;;;6.10;99.90;;;;;;5077185;28;20291;-75
2020/12/07 00:59:10;;;;;;;26.42;22.05;;;6.10;99.90;;;;;;5074455;28;20200;-75
2020/12/07 01:01:37;;;;;;;31.67;22.73;;;6.10;99.90;;;;;;5080080;28;20279;-75
2020/12/07 01:04:04;;;;;;;26.80;22.00;;;6.00;99.90;;;;;;5075717;28;20227;-74
2020/12/07 01:06:31;;;;;;;29.30;23.35;;;6.00;99.90;;;;;;5075825;28;20495;-76
2020/12/07 01:08:58;;;;;;;26.50;23.08;;;6.00;99.90;;;;;;5079599;28;21008;-77
2020/12/07 01:11:25;;;;;;;27.20;23.63;;;6.00;99.90;;;;;;5078010;28;20231;-74
2020/12/07 01:13:51;;;;;;;32.58;22.25;;;6.00;99.90;;;;;;5079645;28;20192;-75
2020/12/07 01:16:20;;;;;;;28.65;22.20;;;6.00;99.90;;;;;;5077480;28;20536;-74
2020/12/07 01:18:48;;;;;;;28.25;24.00;;;6.00;99.90;;;;;;5081413;28;20200;-76
2020/12/07 01:21:16;;;;;;;31.52;21.65;;;6.00;99.90;;;;;;5081250;28;20566;-73
2020/12/07 01:23:44;;;;;;;31.63;22.80;;;5.90;99.90;;;;;;5083499;28;20204;-75
2020/12/07 01:26:11;;;;;;;34.75;24.38;;;5.90;99.90;;;;;;5078517;28;20268;-76
2020/12/07 01:28:38;;;;;;;32.97;24.25;;;5.90;99.90;;;;;;5075951;28;20197;-75
2020/12/07 01:31:04;;;;;;;28.42;23.02;;;5.90;99.90;;;;;;5078411;28;20192;-74
2020/12/07 01:33:30;;;;;;;33.70;25.45;;;5.90;99.90;;;;;;5078500;28;20214;-76
2020/12/07 01:35:57;;;;;;;29.35;25.65;;;5.90;99.90;;;;;;5082320;28;20231;-75
2020/12/07 01:38:24;;;;;;;32.05;25.48;;;5.90;99.90;;;;;;5081118;28;20216;-75
2020/12/07 01:40:51;;;;;;;31.90;23.92;;;5.90;99.90;;;;;;5085311;28;20196;-75
2020/12/07 01:43:18;;;;;;;33.75;26.15;;;5.90;99.90;;;;;;5083826;28;20200;-75
2020/12/07 01:45:45;;;;;;;35.67;26.17;;;5.80;99.90;;;;;;5080217;28;20219;-75
2020/12/07 01:48:11;;;;;;;33.40;25.10;;;5.80;99.90;;;;;;5078483;28;20526;-76
2020/12/07 01:50:41;;;;;;;32.72;26.67;;;5.80;99.90;;;;;;5084536;28;20204;-75
2020/12/07 01:53:09;;;;;;;38.25;28.77;;;5.80;99.90;;;;;;5082485;28;20202;-75
2020/12/07 01:55:36;;;;;;;39.22;28.23;;;5.80;99.90;;;;;;5079042;28;20536;-73
2020/12/07 01:58:03;;;;;;;36.45;28.00;;;5.80;99.90;;;;;;5076090;28;20646;-74
2020/12/07 02:00:29;;;;;;;37.75;27.88;;;5.80;99.90;;;;;;5078579;28;20557;-75
2020/12/07 02:02:56;;;;;;;38.38;27.42;;;5.80;99.90;;;;;;5084621;28;20204;-74
2020/12/07 02:05:23;;;;;;;43.58;30.83;;;5.80;99.90;;;;;;5082413;28;20219;-76
2020/12/07 02:07:52;;;;;;;43.30;30.58;;;5.80;99.90;;;;;;5080087;28;20203;-75
2020/12/07 02:10:19;;;;;;;37.50;29.00;;;5.80;99.90;;;;;;5079852;28;20203;-76
2020/12/07 02:12:46;;;;;;;36.78;29.00;;;5.80;99.90;;;;;;5076587;28;20196;-76
2020/12/07 02:15:12;;;;;;;49.55;32.45;;;5.80;99.90;;;;;;5077814;28;20203;-74
2020/12/07 02:17:39;;;;;;;45.70;29.17;;;5.70;99.90;;;;;;5075906;28;20278;-75
2020/12/07 02:20:06;;;;;;;35.42;28.27;;;5.70;99.90;;;;;;5081655;28;20227;-74
2020/12/07 02:22:32;;;;;;;39.15;28.13;;;5.70;99.90;;;;;;5077671;28;20192;-74
2020/12/07 02:24:58;;;;;;;38.25;28.80;;;5.70;99.90;;;;;;5079011;28;20219;-74
2020/12/07 02:27:25;;;;;;;39.42;28.95;;;5.70;99.90;;;;;;5080100;28;20205;-75
2020/12/07 02:29:51;;;;;;;49.15;31.67;;;5.70;99.90;;;;;;5080365;28;20218;-75
2020/12/07 02:32:17;;;;;;;42.58;30.05;;;5.70;99.90;;;;;;5077252;28;20216;-75
2020/12/07 02:34:44;;;;;;;39.63;28.17;;;5.70;99.90;;;;;;5073534;28;20198;-75
2020/12/07 02:37:11;;;;;;;33.45;26.10;;;5.70;99.90;;;;;;5079415;28;20203;-76
2020/12/07 02:39:38;;;;;;;39.97;28.80;;;5.70;99.90;;;;;;5080099;28;20196;-75
2020/12/07 02:42:05;;;;;;;39.75;26.85;;;5.70;99.90;;;;;;5079326;28;20291;-75
2020/12/07 02:44:32;;;;;;;42.05;30.45;;;5.70;99.90;;;;;;5077889;28;20229;-75
2020/12/07 02:46:59;;;;;;;44.60;28.00;;;5.70;99.90;;;;;;5077602;28;20286;-73
2020/12/07 02:49:27;;;;;;;43.50;30.80;;;5.70;99.90;;;;;;5076663;28;20192;-74
2020/12/07 02:51:53;;;;;;;41.17;26.35;;;5.70;99.90;;;;;;5081057;28;20196;-75
2020/12/07 02:54:20;;;;;;;36.90;24.67;;;5.70;99.90;;;;;;5079374;28;20199;-74
2020/12/07 02:56:47;;;;;;;35.35;26.25;;;5.70;99.90;;;;;;5076452;28;20211;-74
2020/12/07 02:59:13;;;;;;;40.30;27.45;;;5.70;99.90;;;;;;5084624;28;20211;-75
2020/12/07 03:01:39;;;;;;;38.50;27.20;;;5.70;99.90;;;;;;5082012;28;20219;-76
2020/12/07 03:04:06;;;;;;;43.30;27.98;;;5.70;99.90;;;;;;5076346;28;20207;-75
2020/12/07 03:06:32;;;;;;;49.33;29.00;;;5.70;99.90;;;;;;5079109;28;20191;-75
2020/12/07 03:08:59;;;;;;;48.70;32.00;;;5.70;99.90;;;;;;5077268;28;20191;-75
2020/12/07 03:11:26;;;;;;;41.60;29.05;;;5.70;99.90;;;;;;5083013;28;20200;-74
2020/12/07 03:13:52;;;;;;;44.13;30.33;;;5.70;99.90;;;;;;5076954;28;20202;-76
2020/12/07 03:16:19;;;;;;;56.97;32.15;;;5.70;99.90;;;;;;5080022;28;20278;-74
2020/12/07 03:18:45;;;;;;;44.63;29.88;;;5.70;99.90;;;;;;5081308;28;20192;-76
2020/12/07 03:21:11;;;;;;;48.03;31.00;;;5.70;99.90;;;;;;5078825;28;20192;-75
2020/12/07 03:23:38;;;;;;;46.85;32.20;;;5.70;99.90;;;;;;5078576;28;20197;-76
2020/12/07 03:26:04;;;;;;;47.22;32.67;;;5.70;99.90;;;;;;5075388;28;20225;-76
2020/12/07 03:28:31;;;;;;;50.58;33.53;;;5.60;99.90;;;;;;5080470;28;20195;-75
2020/12/07 03:30:57;;;;;;;54.38;36.50;;;5.70;99.90;;;;;;5076470;28;20192;-76
2020/12/07 03:33:24;;;;;;;55.75;34.72;;;5.70;99.90;;;;;;5078020;28;20281;-76
2020/12/07 03:35:50;;;;;;;53.60;35.50;;;5.70;99.90;;;;;;5077402;28;20231;-74
2020/12/07 03:38:16;;;;;;;46.08;31.73;;;5.70;99.90;;;;;;5077251;28;20205;-76
2020/12/07 03:40:43;;;;;;;49.95;33.25;;;5.70;99.90;;;;;;5079689;28;20206;-75
2020/12/07 03:43:09;;;;;;;46.92;30.80;;;5.70;99.90;;;;;;5081058;28;20184;-74
2020/12/07 03:45:36;;;;;;;42.65;32.65;;;5.60;99.90;;;;;;5076358;28;20220;-74
2020/12/07 03:48:03;;;;;;;44.65;30.33;;;5.70;99.90;;;;;;5080222;28;20193;-76
2020/12/07 03:50:29;;;;;;;43.92;29.65;;;5.70;99.90;;;;;;5075525;28;20203;-75
2020/12/07 03:52:56;;;;;;;43.15;30.23;;;5.70;99.90;;;;;;5083817;28;20196;-75
2020/12/07 03:55:22;;;;;;;43.40;29.02;;;5.70;99.90;;;;;;5080568;28;20215;-74
2020/12/07 03:57:48;;;;;;;42.67;28.38;;;5.70;99.90;;;;;;5080047;28;20527;-75
2020/12/07 04:00:15;;;;;;;43.53;29.20;;;5.70;99.90;;;;;;5078267;28;20203;-76
2020/12/07 04:02:42;;;;;;;39.08;28.77;;;5.70;99.90;;;;;;5080243;28;20206;-76
2020/12/07 04:05:16;;;;;;;44.08;28.42;;;5.70;99.90;;;;;;5080216;28;20247;-75
2020/12/07 04:07:42;;;;;;;44.25;29.38;;;5.70;99.90;;;;;;5072808;28;20207;-75
2020/12/07 04:10:09;;;;;;;38.75;28.75;;;5.70;99.90;;;;;;5080436;28;20192;-74
2020/12/07 04:12:35;;;;;;;53.80;29.13;;;5.70;99.90;;;;;;5079831;28;20888;-75
2020/12/07 04:15:01;;;;;;;44.08;29.10;;;5.60;99.90;;;;;;5077535;28;20730;-74
2020/12/07 04:17:28;;;;;;;40.97;28.85;;;5.70;99.90;;;;;;5079028;28;20274;-76
2020/12/07 04:19:56;;;;;;;39.47;26.83;;;5.60;99.90;;;;;;5081904;28;20211;-76
2020/12/07 04:22:22;;;;;;;38.42;27.65;;;5.60;99.90;;;;;;5080300;28;20207;-75
2020/12/07 04:24:49;;;;;;;40.08;27.50;;;5.60;99.90;;;;;;5076087;28;20224;-75
2020/12/07 04:27:15;;;;;;;40.65;27.30;;;5.60;99.90;;;;;;5076959;28;20664;-76
2020/12/07 04:29:42;;;;;;;44.95;30.42;;;5.70;99.90;;;;;;5080020;28;20207;-76
2020/12/07 04:32:08;;;;;;;45.75;30.10;;;5.70;99.90;;;;;;5081438;28;20892;-76
2020/12/07 04:34:34;;;;;;;39.25;27.65;;;5.70;99.90;;;;;;5081002;28;20326;-77
2020/12/07 04:37:01;;;;;;;39.15;28.33;;;5.60;99.90;;;;;;5075207;28;20196;-76
2020/12/07 04:39:28;;;;;;;40.50;28.23;;;5.60;99.90;;;;;;5072855;28;20572;-76
2020/12/07 04:41:55;;;;;;;39.85;28.90;;;5.60;99.90;;;;;;5082179;28;20283;-75
2020/12/07 04:44:21;;;;;;;39.40;29.13;;;5.60;99.90;;;;;;5072947;28;20205;-74
2020/12/07 04:46:48;;;;;;;40.65;29.63;;;5.60;99.90;;;;;;5083073;28;20192;-75
2020/12/07 04:49:16;;;;;;;38.00;28.77;;;5.60;99.90;;;;;;5079295;28;20202;-76
2020/12/07 04:51:43;;;;;;;37.85;28.33;;;5.60;99.90;;;;;;5077391;28;20199;-77
2020/12/07 04:54:13;;;;;;;36.60;28.15;;;5.60;99.90;;;;;;5082435;28;20188;-76
2020/12/07 04:56:40;;;;;;;37.60;27.85;;;5.60;99.90;;;;;;5082957;28;20207;-76
2020/12/07 04:59:09;;;;;;;33.08;27.80;;;5.60;99.90;;;;;;5087438;28;20202;-75
2020/12/07 05:01:35;;;;;;;39.33;28.65;;;5.60;99.90;;;;;;5081861;28;20204;-75
2020/12/07 05:04:02;;;;;;;34.60;27.13;;;5.60;99.90;;;;;;5078919;28;20200;-75
2020/12/07 05:06:30;;;;;;;39.60;29.02;;;5.50;99.90;;;;;;5081753;28;20220;-76
2020/12/07 05:08:57;;;;;;;39.13;27.08;;;5.60;99.90;;;;;;5080399;28;20630;-76
2020/12/07 05:11:25;;;;;;;38.58;28.95;;;5.60;99.90;;;;;;5080210;28;20191;-76
2020/12/07 05:13:55;;;;;;;36.05;28.30;;;5.50;99.90;;;;;;5080612;28;20296;-75
2020/12/07 05:16:24;;;;;;;38.45;29.75;;;5.60;99.90;;;;;;5080892;28;20199;-74
2020/12/07 05:18:50;;;;;;;39.67;29.15;;;5.50;99.90;;;;;;5080575;28;20675;-76
2020/12/07 05:21:17;;;;;;;41.63;29.75;;;5.50;99.90;;;;;;5081118;28;20192;-75
2020/12/07 05:23:48;;;;;;;38.55;29.05;;;5.50;99.90;;;;;;5079898;28;20196;-74
2020/12/07 05:26:18;;;;;;;41.88;28.90;;;5.50;99.90;;;;;;5079780;28;20228;-75
2020/12/07 05:28:48;;;;;;;41.67;30.48;;;5.50;99.90;;;;;;5084887;28;20196;-75
2020/12/07 05:31:17;;;;;;;40.42;29.55;;;5.50;99.90;;;;;;5082923;28;20755;-75
2020/12/07 05:33:43;;;;;;;42.40;30.50;;;5.50;99.90;;;;;;5079016;28;20216;-75
2020/12/07 05:36:11;;;;;;;35.97;28.75;;;5.50;99.90;;;;;;5078196;28;20220;-74
2020/12/07 05:38:37;;;;;;;37.53;28.80;;;5.50;99.90;;;;;;5078100;28;20253;-76
2020/12/07 05:41:05;;;;;;;38.83;27.90;;;5.50;99.90;;;;;;5078584;28;20203;-76
2020/12/07 05:43:32;;;;;;;39.60;29.02;;;5.50;99.90;;;;;;5081057;28;20246;-75
2020/12/07 05:46:00;;;;;;;41.40;27.95;;;5.50;99.90;;;;;;5079857;28;20220;-75
2020/12/07 05:48:30;;;;;;;37.15;28.27;;;5.50;99.90;;;;;;5080519;28;20210;-76
2020/12/07 05:51:01;;;;;;;45.97;27.55;;;5.50;99.90;;;;;;5078941;28;20204;-74
2020/12/07 05:53:27;;;;;;;39.03;29.73;;;5.50;99.90;;;;;;5081419;28;20574;-74
2020/12/07 05:55:55;;;;;;;42.03;29.63;;;5.50;99.90;;;;;;5084908;28;20453;-73
2020/12/07 05:58:22;;;;;;;42.20;31.80;;;5.50;99.90;;;;;;5079952;28;20200;-75
2020/12/07 06:00:54;;;;;;;42.75;30.98;;;5.50;99.90;;;;;;5082520;28;20241;-74
2020/12/07 06:03:21;;;;;;;44.55;32.17;;;5.50;99.90;;;;;;5080421;28;20204;-74
2020/12/07 06:05:48;;;;;;;48.08;30.33;;;5.50;99.90;;;;;;5079299;28;20537;-74
2020/12/07 06:08:19;;;;;;;46.60;30.90;;;5.50;99.90;;;;;;5081267;28;20193;-73
2020/12/07 06:10:51;;;;;;;45.80;32.95;;;5.50;99.90;;;;;;5080590;28;20190;-73
2020/12/07 06:13:20;;;;;;;54.58;34.05;;;5.50;99.90;;;;;;5076331;28;20214;-74
2020/12/07 06:15:47;;;;;;;45.42;34.42;;;5.50;99.90;;;;;;5084187;28;20196;-75
2020/12/07 06:18:27;;;;;;;54.15;36.97;;;5.50;99.90;;;;;;5081608;28;20191;-74
2020/12/07 06:20:55;;;;;;;45.35;32.28;;;5.50;99.90;;;;;;5079585;28;20200;-75
2020/12/07 06:23:30;;;;;;;47.05;35.00;;;5.50;99.90;;;;;;5081366;28;20196;-74
2020/12/07 06:25:59;;;;;;;44.25;30.25;;;5.50;99.90;;;;;;5075182;28;20756;-73
2020/12/07 06:28:31;;;;;;;41.42;28.42;;;5.50;99.90;;;;;;5079244;28;20196;-73
2020/12/07 06:31:04;;;;;;;37.35;28.95;;;5.50;99.90;;;;;;5082331;28;20265;-73
2020/12/07 06:33:38;;;;;;;36.88;26.65;;;5.50;99.90;;;;;;5078232;28;20219;-75
2020/12/07 06:36:04;;;;;;;43.00;28.63;;;5.50;99.90;;;;;;5078504;28;20233;-73
2020/12/07 06:38:40;;;;;;;40.90;28.05;;;5.50;99.90;;;;;;5081634;28;20188;-74
2020/12/07 06:41:07;;;;;;;40.80;26.70;;;5.50;99.90;;;;;;5081186;28;20200;-73
2020/12/07 06:43:33;;;;;;;35.80;26.10;;;5.50;99.90;;;;;;5081036;28;20230;-73
2020/12/07 06:46:00;;;;;;;39.60;28.55;;;5.50;99.90;;;;;;5084979;28;20228;-75
2020/12/07 06:48:27;;;;;;;37.55;26.95;;;5.50;99.90;;;;;;5080161;28;20207;-73
2020/12/07 06:50:57;;;;;;;38.55;26.67;;;5.50;99.90;;;;;;5074563;28;20225;-73
2020/12/07 06:53:39;;;;;;;40.17;26.83;;;5.50;99.90;;;;;;5075649;28;20238;-74
2020/12/07 06:56:05;;;;;;;37.35;27.10;;;5.50;99.90;;;;;;5082149;28;20197;-74
2020/12/07 06:58:36;;;;;;;45.83;32.00;;;5.50;99.90;;;;;;5081915;28;20236;-73
2020/12/07 07:01:13;;;;;;;46.90;32.22;;;5.50;99.90;;;;;;5079969;28;20195;-74
2020/12/07 07:03:55;;;;;;;47.15;32.45;;;5.50;99.90;;;;;;5081994;28;20651;-73
2020/12/07 07:06:23;;;;;;;44.70;28.85;;;5.50;99.90;;;;;;5074828;28;20516;-74
2020/12/07 07:08:51;;;;;;;40.28;29.55;;;5.50;99.90;;;;;;5078783;28;20198;-75
2020/12/07 07:11:17;;;;;;;46.50;29.75;;;5.50;99.90;;;;;;5077839;28;20315;-75
2020/12/07 07:13:48;;;;;;;37.85;28.92;;;5.50;99.90;;;;;;5081942;28;20196;-76
2020/12/07 07:16:16;;;;;;;38.13;27.55;;;5.50;99.90;;;;;;5069228;28;20193;-74
2020/12/07 07:18:43;;;;;;;36.67;26.33;;;5.50;99.90;;;;;;5078321;28;20200;-74
2020/12/07 07:21:09;;;;;;;34.22;25.95;;;5.50;99.90;;;;;;5080840;28;20211;-73
2020/12/07 07:23:38;;;;;;;41.05;26.65;;;5.50;99.90;;;;;;5080082;28;20196;-74
2020/12/07 07:26:19;;;;;;;39.00;27.80;;;5.50;99.90;;;;;;5073745;28;20230;-74
2020/12/07 07:28:46;;;;;;;34.25;24.60;;;5.50;99.90;;;;;;5076401;28;20337;-74
2020/12/07 07:31:13;;;;;;;36.15;26.13;;;5.50;99.90;;;;;;5078727;28;20602;-75
2020/12/07 07:33:40;;;;;;;41.97;26.27;;;5.40;99.90;;;;;;5076072;28;20228;-73
2020/12/07 07:36:06;;;;;;;36.92;24.83;;;5.50;99.90;;;;;;5081147;28;20234;-75
2020/12/07 07:38:34;;;;;;;38.97;26.90;;;5.50;99.90;;;;;;5080365;28;20231;-73
2020/12/07 07:41:01;;;;;;;33.63;25.50;;;5.50;99.90;;;;;;5077840;28;20200;-73
2020/12/07 07:43:28;;;;;;;35.55;24.73;;;5.40;99.90;;;;;;5077983;28;20206;-74
2020/12/07 07:45:58;;;;;;;36.10;23.55;;;5.40;99.90;;;;;;5081011;28;20246;-75
2020/12/07 07:48:31;;;;;;;33.88;23.75;;;5.40;99.90;;;;;;5081800;28;20307;-73
2020/12/07 07:51:30;;;;;;;36.03;24.95;;;5.40;99.90;;;;;;5082027;28;20200;-74
2020/12/07 07:54:31;;;;;;;33.03;25.17;;;5.40;99.90;;;;;;5085026;28;20245;-74
2020/12/07 08:00:18;;;;;;;37.55;24.65;;;5.40;99.90;;;;;;5079095;28;20340;-74
2020/12/07 08:16:59;;;;;;;35.80;23.80;;;5.40;99.90;;;;;;5077415;28;20321;-75
2020/12/07 08:19:28;;;;;;;35.45;23.83;;;5.50;99.90;;;;;;5077843;28;20192;-74
2020/12/07 08:21:55;;;;;;;34.70;21.35;;;5.50;99.90;;;;;;5078427;28;20706;-73
2020/12/07 08:24:21;;;;;;;33.53;22.23;;;5.50;99.90;;;;;;5083374;28;20559;-75
2020/12/07 08:26:47;;;;;;;31.98;22.85;;;5.50;99.90;;;;;;5076521;28;20234;-75
2020/12/07 08:29:14;;;;;;;29.92;22.05;;;5.50;99.90;;;;;;5070403;28;20678;-73
2020/12/07 08:31:42;;;;;;;30.80;23.08;;;5.50;99.90;;;;;;5050362;28;20196;-74
2020/12/07 08:34:12;;;;;;;34.22;23.23;;;5.50;99.90;;;;;;5071383;28;20283;-75
2020/12/07 08:36:41;;;;;;;35.17;24.23;;;5.50;99.90;;;;;;5072804;28;20234;-73
2020/12/07 08:39:08;;;;;;;36.20;25.95;;;5.60;99.90;;;;;;5066584;28;20195;-74
2020/12/07 08:41:35;;;;;;;39.35;25.58;;;5.60;99.90;;;;;;5084678;28;20324;-77
2020/12/07 08:44:03;;;;;;;34.97;25.67;;;5.60;99.90;;;;;;5078495;28;20199;-76
2020/12/07 08:46:32;;;;;;;36.20;23.65;;;5.60;99.90;;;;;;5082513;28;20708;-76
2020/12/07 08:49:00;;;;;;;33.78;22.88;;;5.60;99.90;;;;;;5086815;28;20227;-76
2020/12/07 08:51:28;;;;;;;29.45;22.48;;;5.60;99.90;;;;;;5081453;28;20207;-76
2020/12/07 08:53:55;;;;;;;33.83;22.60;;;5.70;99.90;;;;;;5082999;28;20200;-78
2020/12/07 08:56:21;;;;;;;32.60;22.27;;;5.60;99.90;;;;;;5082693;28;20922;-78
2020/12/07 08:58:48;;;;;;;31.42;22.85;;;5.70;99.90;;;;;;5084096;28;20207;-77
2020/12/07 09:01:15;;;;;;;33.38;22.65;;;5.70;99.90;;;;;;5083605;28;20328;-77
2020/12/07 09:03:43;;;;;;;34.10;24.25;;;5.70;99.90;;;;;;5086985;28;20196;-76
2020/12/07 09:06:12;;;;;;;42.60;26.10;;;5.70;99.90;;;;;;5087074;28;20269;-76
2020/12/07 09:08:40;;;;;;;39.17;27.50;;;5.70;99.90;;;;;;5077923;28;20279;-76
2020/12/07 09:11:08;;;;;;;38.28;24.40;;;5.70;99.90;;;;;;5080251;28;20666;-76
2020/12/07 09:13:35;;;;;;;33.75;23.55;;;5.70;99.90;;;;;;5082297;28;20199;-76
2020/12/07 09:16:02;;;;;;;36.80;21.73;;;5.70;99.90;;;;;;5083594;28;20646;-76
2020/12/07 09:18:28;;;;;;;36.70;21.98;;;5.70;99.90;;;;;;5083710;28;20193;-77
2020/12/07 09:20:56;;;;;;;34.90;24.25;;;5.70;99.90;;;;;;5083999;28;20203;-76
2020/12/07 09:23:24;;;;;;;34.15;23.10;;;5.70;99.90;;;;;;5077417;28;20208;-76
2020/12/07 09:25:51;;;;;;;37.70;21.58;;;5.70;99.90;;;;;;5079562;28;20259;-77
2020/12/07 09:28:17;;;;;;;33.60;22.83;;;5.70;99.90;;;;;;5076506;28;20196;-76
2020/12/07 09:30:44;;;;;;;36.80;22.98;;;5.70;99.90;;;;;;5082126;28;20196;-78
2020/12/07 09:33:11;;;;;;;32.05;23.67;;;5.70;99.90;;;;;;5079281;28;20212;-76
2020/12/07 09:35:37;;;;;;;29.42;21.80;;;5.70;99.90;;;;;;5081078;28;20215;-75
2020/12/07 09:38:05;;;;;;;34.20;21.92;;;5.70;99.90;;;;;;5078752;28;20223;-77
2020/12/07 09:40:31;;;;;;;32.03;23.75;;;5.60;99.90;;;;;;5081014;28;20200;-76
2020/12/07 09:42:57;;;;;;;33.05;22.20;;;5.70;99.90;;;;;;5082449;28;20287;-76
2020/12/07 09:45:24;;;;;;;31.95;21.73;;;5.70;99.90;;;;;;5084832;28;20216;-77
2020/12/07 09:47:50;;;;;;;34.20;22.70;;;5.70;99.90;;;;;;5085527;28;20192;-76
2020/12/07 09:50:17;;;;;;;32.70;20.83;;;5.70;99.90;;;;;;5084322;28;20199;-76
2020/12/07 09:52:43;;;;;;;33.55;22.20;;;5.70;99.90;;;;;;5080397;28;20204;-77
2020/12/07 09:55:10;;;;;;;29.92;20.85;;;5.70;99.90;;;;;;5078314;28;20286;-77
2020/12/07 09:57:37;;;;;;;33.60;21.10;;;5.70;99.90;;;;;;5074771;28;20191;-75
2020/12/07 10:00:05;;;;;;;29.90;20.60;;;5.70;99.90;;;;;;5078492;28;20195;-75
2020/12/07 10:02:31;;;;;;;27.63;20.45;;;5.70;99.90;;;;;;5082564;28;20203;-75
2020/12/07 10:04:58;;;;;;;30.83;21.05;;;5.70;99.90;;;;;;5082795;28;20204;-76
2020/12/07 10:07:25;;;;;;;32.25;22.00;;;5.80;99.90;;;;;;5082460;28;20196;-76
2020/12/07 10:09:51;;;;;;;31.83;20.52;;;5.80;99.90;;;;;;5077731;28;20250;-77
2020/12/07 10:12:19;;;;;;;28.50;19.17;;;5.80;99.90;;;;;;5081109;28;20210;-75
2020/12/07 10:14:45;;;;;;;30.15;19.13;;;5.80;99.90;;;;;;5074610;28;20192;-76
2020/12/07 10:17:11;;;;;;;32.15;21.10;;;5.80;99.90;;;;;;5080439;28;20200;-77
2020/12/07 10:19:38;;;;;;;28.13;20.50;;;5.90;99.90;;;;;;5085087;28;20210;-77
2020/12/07 10:22:05;;;;;;;28.98;19.10;;;5.90;99.90;;;;;;5085309;28;20253;-76
2020/12/07 10:24:31;;;;;;;27.23;19.08;;;5.90;99.90;;;;;;5076155;28;20231;-77
2020/12/07 10:26:58;;;;;;;31.20;20.60;;;5.90;99.90;;;;;;5079918;28;20706;-75
2020/12/07 10:29:25;;;;;;;27.98;19.13;;;5.90;99.90;;;;;;5079419;28;20199;-76
2020/12/07 10:31:51;;;;;;;35.45;21.65;;;5.90;99.90;;;;;;5076295;28;20203;-76
2020/12/07 10:34:18;;;;;;;28.70;20.33;;;5.90;99.90;;;;;;5079357;28;20206;-76
2020/12/07 10:36:45;;;;;;;35.10;21.60;;;5.90;99.90;;;;;;5078498;28;20690;-76
2020/12/07 10:39:12;;;;;;;31.63;20.75;;;5.90;99.90;;;;;;5082927;28;20195;-75
2020/12/07 10:41:38;;;;;;;30.23;21.15;;;5.90;99.90;;;;;;5075473;28;20192;-76
2020/12/07 10:44:05;;;;;;;28.60;20.70;;;5.90;99.90;;;;;;5088382;28;20199;-75
2020/12/07 10:46:32;;;;;;;25.17;19.10;;;5.90;99.90;;;;;;5081891;28;20227;-78
2020/12/07 10:48:58;;;;;;;28.33;19.65;;;5.90;99.90;;;;;;5080838;28;20207;-77
2020/12/07 10:51:25;;;;;;;31.95;21.73;;;5.90;99.90;;;;;;5080412;28;20203;-76
2020/12/07 10:53:51;;;;;;;33.60;21.58;;;5.90;99.90;;;;;;5078212;28;20227;-76
2020/12/07 10:56:18;;;;;;;31.77;20.45;;;5.90;99.90;;;;;;5082937;28;20214;-77
2020/12/07 10:58:44;;;;;;;36.83;21.58;;;5.90;99.90;;;;;;5077767;28;20196;-76
2020/12/07 11:01:11;;;;;;;31.25;21.83;;;5.90;99.90;;;;;;5076402;28;20195;-75
2020/12/07 11:03:38;;;;;;;35.45;22.55;;;5.90;99.90;;;;;;5077862;28;20216;-75
2020/12/07 11:06:13;;;;;;;29.95;19.48;;;6.00;99.90;;;;;;5079396;28;20215;-77
2020/12/07 11:08:48;;;;;;;31.27;19.48;;;6.00;99.90;;;;;;5083579;28;20209;-77
2020/12/07 11:11:14;;;;;;;31.67;19.23;;;6.00;99.90;;;;;;5084734;28;20544;-75
2020/12/07 11:13:41;;;;;;;32.70;19.83;;;6.00;99.90;;;;;;5079889;28;20201;-76
2020/12/07 11:16:11;;;;;;;28.10;18.20;;;6.00;99.90;;;;;;5082599;28;20199;-76
2020/12/07 11:18:38;;;;;;;29.42;20.65;;;6.00;99.90;;;;;;5085554;28;20215;-77
2020/12/07 11:21:08;;;;;;;29.17;18.60;;;6.00;99.90;;;;;;5080058;28;20195;-77
2020/12/07 11:23:35;;;;;;;25.38;18.10;;;6.00;99.90;;;;;;5074446;28;20196;-76
2020/12/07 11:26:01;;;;;;;24.92;17.17;;;6.00;99.90;;;;;;5080765;28;20218;-78
2020/12/07 11:28:27;;;;;;;30.52;19.55;;;6.00;99.90;;;;;;5076619;28;20197;-76
2020/12/07 11:30:54;;;;;;;28.17;17.13;;;6.10;99.90;;;;;;5079680;28;20625;-75
2020/12/07 11:33:20;;;;;;;26.35;17.10;;;6.10;99.90;;;;;;5070880;28;20220;-78
2020/12/07 11:35:47;;;;;;;28.17;18.60;;;6.10;99.90;;;;;;5078543;28;20227;-76
2020/12/07 11:38:17;;;;;;;25.20;15.93;;;6.10;99.90;;;;;;5073965;28;20199;-76
2020/12/07 11:41:10;;;;;;;23.75;15.57;;;6.10;99.90;;;;;;5078844;28;20199;-78
2020/12/07 11:43:42;;;;;;;27.50;17.70;;;6.20;99.90;;;;;;5073168;28;20633;-77
2020/12/07 11:46:15;;;;;;;26.55;17.13;;;6.20;99.90;;;;;;5084311;28;20276;-77
2020/12/07 11:48:41;;;;;;;28.55;16.42;;;6.20;99.90;;;;;;5079785;28;20196;-77
2020/12/07 11:51:09;;;;;;;27.90;17.20;;;6.30;99.90;;;;;;5076953;28;20207;-78
2020/12/07 11:53:35;;;;;;;24.00;17.27;;;6.30;99.90;;;;;;5076905;28;20200;-77
2020/12/07 11:56:01;;;;;;;30.90;19.45;;;6.30;99.90;;;;;;5080709;28;20196;-76
2020/12/07 11:58:28;;;;;;;25.90;16.08;;;6.30;99.90;;;;;;5075831;28;20700;-77
2020/12/07 12:00:54;;;;;;;25.05;17.05;;;6.40;99.90;;;;;;5074543;28;20632;-77
2020/12/07 12:03:20;;;;;;;26.65;14.93;;;6.40;99.90;;;;;;5077720;28;20198;-78
2020/12/07 12:05:47;;;;;;;23.75;15.88;;;6.40;99.90;;;;;;5079531;28;20938;-78
2020/12/07 12:08:14;;;;;;;22.40;17.40;;;6.40;99.90;;;;;;5080428;28;20246;-77
2020/12/07 12:10:40;;;;;;;23.67;16.70;;;6.40;99.90;;;;;;5082796;28;20196;-76
2020/12/07 12:13:06;;;;;;;24.88;16.08;;;6.40;99.90;;;;;;5078817;28;20203;-77
2020/12/07 12:15:33;;;;;;;30.92;17.60;;;6.50;99.90;;;;;;5077650;28;20195;-77
2020/12/07 12:17:59;;;;;;;28.15;17.17;;;6.50;99.90;;;;;;5077663;28;20200;-77
2020/12/07 12:20:25;;;;;;;28.40;17.05;;;6.50;99.90;;;;;;5080516;28;20208;-75
2020/12/07 12:22:52;;;;;;;24.10;16.90;;;6.50;99.90;;;;;;5076064;28;20953;-76
2020/12/07 12:25:19;;;;;;;24.42;16.40;;;6.50;99.90;;;;;;5076635;28;20720;-78
2020/12/07 12:27:45;;;;;;;26.17;17.50;;;6.60;99.90;;;;;;5081231;28;20203;-76
2020/12/07 12:30:11;;;;;;;26.40;16.65;;;6.60;99.90;;;;;;5079784;28;20283;-77
2020/12/07 12:32:38;;;;;;;25.02;16.95;;;6.60;99.90;;;;;;5075724;28;20890;-76
2020/12/07 12:35:04;;;;;;;23.58;16.52;;;6.60;99.90;;;;;;5077594;28;20232;-77
2020/12/07 12:37:31;;;;;;;24.08;16.25;;;6.70;99.90;;;;;;5074551;28;20279;-77
2020/12/07 12:39:57;;;;;;;22.25;16.60;;;6.70;99.90;;;;;;5077221;28;20200;-77
2020/12/07 12:42:24;;;;;;;28.08;17.42;;;6.70;99.90;;;;;;5078825;28;20652;-77
2020/12/07 12:44:51;;;;;;;24.63;18.05;;;6.70;99.90;;;;;;5076799;28;20203;-76
2020/12/07 12:47:17;;;;;;;21.73;16.63;;;6.70;99.90;;;;;;5081518;28;20227;-75
2020/12/07 12:49:43;;;;;;;27.90;17.33;;;6.70;99.90;;;;;;5076438;28;20207;-77
2020/12/07 12:52:09;;;;;;;27.98;18.70;;;6.80;99.90;;;;;;5079877;28;20194;-78
2020/12/07 12:54:36;;;;;;;24.77;16.00;;;6.80;99.90;;;;;;5070499;28;20200;-78